sensor_id;sensor_type;location;lat;lon;timestamp;P1;durP1;ratioP1;P2;durP2;ratioP2
77332;SDS011;66408;51.326;12.070;2023-03-14T00:00:50;0.82;;;0.40;;
77332;SDS011;66408;51.326;12.070;2023-03-14T00:03:17;1.05;;;0.47;;
77332;SDS011;66408;51.326;12.070;2023-03-14T00:05:43;0.88;;;0.50;;
77332;SDS011;66408;51.326;12.070;2023-03-14T00:08:10;1.98;;;0.50;;
77332;SDS011;66408;51.326;12.070;2023-03-14T00:10:37;1.05;;;0.45;;
77332;SDS011;66408;51.326;12.070;2023-03-14T00:13:04;0.52;;;0.30;;
77332;SDS011;66408;51.326;12.070;2023-03-14T00:15:32;1.73;;;0.40;;
77332;SDS011;66408;51.326;12.070;2023-03-14T00:18:00;1.20;;;0.40;;
77332;SDS011;66408;51.326;12.070;2023-03-14T00:20:27;1.13;;;0.35;;
77332;SDS011;66408;51.326;12.070;2023-03-14T00:22:53;1.08;;;0.50;;
77332;SDS011;66408;51.326;12.070;2023-03-14T00:25:20;0.85;;;0.40;;
77332;SDS011;66408;51.326;12.070;2023-03-14T00:27:46;0.55;;;0.25;;
77332;SDS011;66408;51.326;12.070;2023-03-14T00:30:21;2.03;;;0.40;;
77332;SDS011;66408;51.326;12.070;2023-03-14T00:32:50;1.95;;;0.52;;
77332;SDS011;66408;51.326;12.070;2023-03-14T00:35:17;1.42;;;0.40;;
77332;SDS011;66408;51.326;12.070;2023-03-14T00:37:43;1.73;;;0.35;;
77332;SDS011;66408;51.326;12.070;2023-03-14T00:40:10;1.30;;;0.40;;
77332;SDS011;66408;51.326;12.070;2023-03-14T00:42:36;1.63;;;0.40;;
77332;SDS011;66408;51.326;12.070;2023-03-14T00:45:03;0.93;;;0.40;;
77332;SDS011;66408;51.326;12.070;2023-03-14T00:47:30;0.75;;;0.38;;
77332;SDS011;66408;51.326;12.070;2023-03-14T00:49:56;0.70;;;0.28;;
77332;SDS011;66408;51.326;12.070;2023-03-14T00:52:23;1.85;;;0.40;;
77332;SDS011;66408;51.326;12.070;2023-03-14T00:54:49;0.40;;;0.20;;
77332;SDS011;66408;51.326;12.070;2023-03-14T00:57:16;0.75;;;0.30;;
77332;SDS011;66408;51.326;12.070;2023-03-14T00:59:42;1.02;;;0.30;;
77332;SDS011;66408;51.326;12.070;2023-03-14T01:02:09;1.60;;;0.50;;
77332;SDS011;66408;51.326;12.070;2023-03-14T01:04:35;1.02;;;0.40;;
77332;SDS011;66408;51.326;12.070;2023-03-14T01:07:03;1.13;;;0.45;;
77332;SDS011;66408;51.326;12.070;2023-03-14T01:09:30;1.00;;;0.47;;
77332;SDS011;66408;51.326;12.070;2023-03-14T01:11:56;2.63;;;0.40;;
77332;SDS011;66408;51.326;12.070;2023-03-14T01:14:23;0.73;;;0.40;;
77332;SDS011;66408;51.326;12.070;2023-03-14T01:16:49;1.17;;;0.30;;
77332;SDS011;66408;51.326;12.070;2023-03-14T01:19:16;1.30;;;0.40;;
77332;SDS011;66408;51.326;12.070;2023-03-14T01:21:42;1.38;;;0.40;;
77332;SDS011;66408;51.326;12.070;2023-03-14T01:24:10;0.73;;;0.30;;
77332;SDS011;66408;51.326;12.070;2023-03-14T01:26:37;0.55;;;0.30;;
77332;SDS011;66408;51.326;12.070;2023-03-14T01:29:04;0.45;;;0.20;;
77332;SDS011;66408;51.326;12.070;2023-03-14T01:31:30;1.55;;;0.30;;
77332;SDS011;66408;51.326;12.070;2023-03-14T01:33:57;0.68;;;0.30;;
77332;SDS011;66408;51.326;12.070;2023-03-14T01:36:24;0.95;;;0.30;;
77332;SDS011;66408;51.326;12.070;2023-03-14T01:38:50;0.98;;;0.30;;
77332;SDS011;66408;51.326;12.070;2023-03-14T01:41:18;1.42;;;0.32;;
77332;SDS011;66408;51.326;12.070;2023-03-14T01:43:49;1.52;;;0.40;;
77332;SDS011;66408;51.326;12.070;2023-03-14T01:49:21;2.17;;;0.60;;
77332;SDS011;66408;51.326;12.070;2023-03-14T01:51:56;1.35;;;0.60;;
77332;SDS011;66408;51.326;12.070;2023-03-14T01:54:42;0.93;;;0.50;;
77332;SDS011;66408;51.326;12.070;2023-03-14T01:57:20;0.75;;;0.30;;
77332;SDS011;66408;51.326;12.070;2023-03-14T01:59:52;0.65;;;0.40;;
77332;SDS011;66408;51.326;12.070;2023-03-14T02:02:24;1.35;;;0.35;;
77332;SDS011;66408;51.326;12.070;2023-03-14T02:09:58;0.82;;;0.30;;
77332;SDS011;66408;51.326;12.070;2023-03-14T02:12:25;0.88;;;0.50;;
77332;SDS011;66408;51.326;12.070;2023-03-14T02:14:52;1.17;;;0.50;;
77332;SDS011;66408;51.326;12.070;2023-03-14T02:17:19;2.55;;;0.40;;
77332;SDS011;66408;51.326;12.070;2023-03-14T02:22:35;1.15;;;0.40;;
77332;SDS011;66408;51.326;12.070;2023-03-14T02:28:31;0.82;;;0.30;;
77332;SDS011;66408;51.326;12.070;2023-03-14T02:30:58;0.43;;;0.25;;
77332;SDS011;66408;51.326;12.070;2023-03-14T02:33:25;1.02;;;0.38;;
77332;SDS011;66408;51.326;12.070;2023-03-14T02:38:23;1.00;;;0.50;;
77332;SDS011;66408;51.326;12.070;2023-03-14T02:40:55;0.98;;;0.30;;
77332;SDS011;66408;51.326;12.070;2023-03-14T02:43:21;0.60;;;0.20;;
77332;SDS011;66408;51.326;12.070;2023-03-14T02:45:48;1.08;;;0.40;;
77332;SDS011;66408;51.326;12.070;2023-03-14T02:48:18;0.80;;;0.40;;
77332;SDS011;66408;51.326;12.070;2023-03-14T02:50:47;0.68;;;0.30;;
77332;SDS011;66408;51.326;12.070;2023-03-14T02:53:21;1.33;;;0.43;;
77332;SDS011;66408;51.326;12.070;2023-03-14T02:55:51;1.58;;;0.28;;
77332;SDS011;66408;51.326;12.070;2023-03-14T02:58:17;0.30;;;0.20;;
77332;SDS011;66408;51.326;12.070;2023-03-14T03:00:44;1.75;;;0.60;;
77332;SDS011;66408;51.326;12.070;2023-03-14T03:03:11;0.52;;;0.30;;
77332;SDS011;66408;51.326;12.070;2023-03-14T03:05:38;0.80;;;0.30;;
77332;SDS011;66408;51.326;12.070;2023-03-14T03:08:05;0.73;;;0.25;;
77332;SDS011;66408;51.326;12.070;2023-03-14T03:10:31;1.88;;;0.45;;
77332;SDS011;66408;51.326;12.070;2023-03-14T03:12:58;0.88;;;0.40;;
77332;SDS011;66408;51.326;12.070;2023-03-14T03:15:24;0.65;;;0.30;;
77332;SDS011;66408;51.326;12.070;2023-03-14T03:17:52;0.68;;;0.30;;
77332;SDS011;66408;51.326;12.070;2023-03-14T03:20:18;2.03;;;0.43;;
77332;SDS011;66408;51.326;12.070;2023-03-14T03:22:45;0.45;;;0.30;;
77332;SDS011;66408;51.326;12.070;2023-03-14T03:25:11;1.58;;;0.40;;
77332;SDS011;66408;51.326;12.070;2023-03-14T03:27:38;1.02;;;0.30;;
77332;SDS011;66408;51.326;12.070;2023-03-14T03:30:05;0.82;;;0.30;;
77332;SDS011;66408;51.326;12.070;2023-03-14T03:32:32;2.80;;;0.50;;
77332;SDS011;66408;51.326;12.070;2023-03-14T03:34:58;1.25;;;0.50;;
77332;SDS011;66408;51.326;12.070;2023-03-14T03:37:25;1.38;;;0.30;;
77332;SDS011;66408;51.326;12.070;2023-03-14T03:39:51;0.45;;;0.25;;
77332;SDS011;66408;51.326;12.070;2023-03-14T03:42:18;1.58;;;0.43;;
77332;SDS011;66408;51.326;12.070;2023-03-14T03:44:45;2.30;;;0.40;;
77332;SDS011;66408;51.326;12.070;2023-03-14T03:47:11;1.05;;;0.47;;
77332;SDS011;66408;51.326;12.070;2023-03-14T03:49:38;0.90;;;0.40;;
77332;SDS011;66408;51.326;12.070;2023-03-14T03:52:04;0.60;;;0.30;;
77332;SDS011;66408;51.326;12.070;2023-03-14T03:54:31;1.38;;;0.40;;
77332;SDS011;66408;51.326;12.070;2023-03-14T03:56:57;0.98;;;0.30;;
77332;SDS011;66408;51.326;12.070;2023-03-14T03:59:23;1.98;;;0.40;;
77332;SDS011;66408;51.326;12.070;2023-03-14T04:01:50;0.60;;;0.22;;
77332;SDS011;66408;51.326;12.070;2023-03-14T04:04:17;2.38;;;0.60;;
77332;SDS011;66408;51.326;12.070;2023-03-14T04:06:44;0.70;;;0.28;;
77332;SDS011;66408;51.326;12.070;2023-03-14T04:09:10;0.73;;;0.45;;
77332;SDS011;66408;51.326;12.070;2023-03-14T04:11:38;1.90;;;0.52;;
77332;SDS011;66408;51.326;12.070;2023-03-14T04:14:04;1.85;;;0.47;;
77332;SDS011;66408;51.326;12.070;2023-03-14T04:16:31;2.63;;;0.50;;
77332;SDS011;66408;51.326;12.070;2023-03-14T04:18:57;1.17;;;0.40;;
77332;SDS011;66408;51.326;12.070;2023-03-14T04:21:24;1.48;;;0.60;;
77332;SDS011;66408;51.326;12.070;2023-03-14T04:23:50;2.15;;;0.40;;
77332;SDS011;66408;51.326;12.070;2023-03-14T04:26:17;0.93;;;0.40;;
77332;SDS011;66408;51.326;12.070;2023-03-14T04:28:43;1.95;;;0.40;;
77332;SDS011;66408;51.326;12.070;2023-03-14T04:31:11;1.25;;;0.60;;
77332;SDS011;66408;51.326;12.070;2023-03-14T04:33:38;2.75;;;0.60;;
77332;SDS011;66408;51.326;12.070;2023-03-14T04:36:05;3.03;;;0.60;;
77332;SDS011;66408;51.326;12.070;2023-03-14T04:38:33;1.70;;;0.47;;
77332;SDS011;66408;51.326;12.070;2023-03-14T04:41:00;5.22;;;0.55;;
77332;SDS011;66408;51.326;12.070;2023-03-14T04:43:27;1.52;;;0.40;;
77332;SDS011;66408;51.326;12.070;2023-03-14T04:45:54;2.00;;;0.63;;
77332;SDS011;66408;51.326;12.070;2023-03-14T04:48:21;5.93;;;0.70;;
77332;SDS011;66408;51.326;12.070;2023-03-14T04:50:48;1.38;;;0.50;;
77332;SDS011;66408;51.326;12.070;2023-03-14T04:53:15;3.35;;;0.52;;
77332;SDS011;66408;51.326;12.070;2023-03-14T04:55:47;1.20;;;0.45;;
77332;SDS011;66408;51.326;12.070;2023-03-14T04:58:17;2.53;;;0.80;;
77332;SDS011;66408;51.326;12.070;2023-03-14T05:00:45;1.90;;;0.45;;
77332;SDS011;66408;51.326;12.070;2023-03-14T05:03:12;2.30;;;0.47;;
77332;SDS011;66408;51.326;12.070;2023-03-14T05:05:41;1.90;;;0.50;;
77332;SDS011;66408;51.326;12.070;2023-03-14T05:08:07;1.25;;;0.50;;
77332;SDS011;66408;51.326;12.070;2023-03-14T05:10:34;2.03;;;0.65;;
77332;SDS011;66408;51.326;12.070;2023-03-14T05:13:00;1.45;;;0.52;;
77332;SDS011;66408;51.326;12.070;2023-03-14T05:15:27;1.50;;;0.40;;
77332;SDS011;66408;51.326;12.070;2023-03-14T05:17:53;1.35;;;0.60;;
77332;SDS011;66408;51.326;12.070;2023-03-14T05:20:20;1.70;;;0.70;;
77332;SDS011;66408;51.326;12.070;2023-03-14T05:22:47;2.92;;;0.60;;
77332;SDS011;66408;51.326;12.070;2023-03-14T05:25:13;1.23;;;0.50;;
77332;SDS011;66408;51.326;12.070;2023-03-14T05:27:40;1.23;;;0.40;;
77332;SDS011;66408;51.326;12.070;2023-03-14T05:30:07;5.60;;;0.70;;
77332;SDS011;66408;51.326;12.070;2023-03-14T05:32:34;1.90;;;0.70;;
77332;SDS011;66408;51.326;12.070;2023-03-14T05:35:01;1.40;;;0.40;;
77332;SDS011;66408;51.326;12.070;2023-03-14T05:37:27;2.08;;;0.73;;
77332;SDS011;66408;51.326;12.070;2023-03-14T05:39:54;5.07;;;0.60;;
77332;SDS011;66408;51.326;12.070;2023-03-14T05:42:20;5.85;;;1.02;;
77332;SDS011;66408;51.326;12.070;2023-03-14T05:44:47;0.82;;;0.47;;
77332;SDS011;66408;51.326;12.070;2023-03-14T05:47:13;2.40;;;0.60;;
77332;SDS011;66408;51.326;12.070;2023-03-14T05:49:40;1.25;;;0.50;;
77332;SDS011;66408;51.326;12.070;2023-03-14T05:52:06;3.15;;;0.50;;
77332;SDS011;66408;51.326;12.070;2023-03-14T05:54:33;5.22;;;0.70;;
77332;SDS011;66408;51.326;12.070;2023-03-14T05:56:59;4.22;;;0.80;;
77332;SDS011;66408;51.326;12.070;2023-03-14T05:59:26;2.90;;;0.73;;
77332;SDS011;66408;51.326;12.070;2023-03-14T06:01:52;3.55;;;0.82;;
77332;SDS011;66408;51.326;12.070;2023-03-14T06:04:19;2.00;;;0.50;;
77332;SDS011;66408;51.326;12.070;2023-03-14T06:06:45;2.28;;;0.60;;
77332;SDS011;66408;51.326;12.070;2023-03-14T06:09:12;2.60;;;0.77;;
77332;SDS011;66408;51.326;12.070;2023-03-14T06:11:38;3.35;;;0.63;;
77332;SDS011;66408;51.326;12.070;2023-03-14T06:14:05;1.55;;;0.55;;
77332;SDS011;66408;51.326;12.070;2023-03-14T06:16:32;2.00;;;0.73;;
77332;SDS011;66408;51.326;12.070;2023-03-14T06:18:58;2.92;;;0.55;;
77332;SDS011;66408;51.326;12.070;2023-03-14T06:21:25;1.08;;;0.45;;
77332;SDS011;66408;51.326;12.070;2023-03-14T06:23:51;4.47;;;0.63;;
77332;SDS011;66408;51.326;12.070;2023-03-14T06:26:18;1.75;;;0.50;;
77332;SDS011;66408;51.326;12.070;2023-03-14T06:28:44;2.22;;;0.50;;
77332;SDS011;66408;51.326;12.070;2023-03-14T06:31:11;3.13;;;0.50;;
77332;SDS011;66408;51.326;12.070;2023-03-14T06:33:38;5.65;;;0.63;;
77332;SDS011;66408;51.326;12.070;2023-03-14T06:36:04;3.03;;;0.70;;
77332;SDS011;66408;51.326;12.070;2023-03-14T06:38:31;0.95;;;0.50;;
77332;SDS011;66408;51.326;12.070;2023-03-14T06:41:02;2.22;;;0.50;;
77332;SDS011;66408;51.326;12.070;2023-03-14T06:43:32;3.22;;;0.50;;
77332;SDS011;66408;51.326;12.070;2023-03-14T06:45:59;4.20;;;0.55;;
77332;SDS011;66408;51.326;12.070;2023-03-14T06:48:26;2.20;;;0.70;;
77332;SDS011;66408;51.326;12.070;2023-03-14T06:50:52;2.65;;;0.65;;
77332;SDS011;66408;51.326;12.070;2023-03-14T06:53:18;1.58;;;0.52;;
77332;SDS011;66408;51.326;12.070;2023-03-14T06:55:45;4.50;;;0.50;;
77332;SDS011;66408;51.326;12.070;2023-03-14T06:58:11;1.88;;;0.50;;
77332;SDS011;66408;51.326;12.070;2023-03-14T07:00:38;4.38;;;0.60;;
77332;SDS011;66408;51.326;12.070;2023-03-14T07:03:05;1.95;;;0.55;;
77332;SDS011;66408;51.326;12.070;2023-03-14T07:05:32;3.15;;;0.88;;
77332;SDS011;66408;51.326;12.070;2023-03-14T07:07:58;1.17;;;0.45;;
77332;SDS011;66408;51.326;12.070;2023-03-14T07:10:25;3.30;;;0.57;;
77332;SDS011;66408;51.326;12.070;2023-03-14T07:12:51;2.15;;;0.60;;
77332;SDS011;66408;51.326;12.070;2023-03-14T07:15:19;4.10;;;0.70;;
77332;SDS011;66408;51.326;12.070;2023-03-14T07:17:46;3.35;;;0.50;;
77332;SDS011;66408;51.326;12.070;2023-03-14T07:20:14;1.40;;;0.50;;
77332;SDS011;66408;51.326;12.070;2023-03-14T07:22:41;2.90;;;0.57;;
77332;SDS011;66408;51.326;12.070;2023-03-14T07:25:08;2.53;;;0.60;;
77332;SDS011;66408;51.326;12.070;2023-03-14T07:27:37;2.15;;;0.60;;
77332;SDS011;66408;51.326;12.070;2023-03-14T07:30:04;1.60;;;0.60;;
77332;SDS011;66408;51.326;12.070;2023-03-14T07:32:32;1.42;;;0.50;;
77332;SDS011;66408;51.326;12.070;2023-03-14T07:34:59;2.25;;;0.60;;
77332;SDS011;66408;51.326;12.070;2023-03-14T07:37:25;3.33;;;0.80;;
77332;SDS011;66408;51.326;12.070;2023-03-14T07:39:52;2.10;;;0.43;;
77332;SDS011;66408;51.326;12.070;2023-03-14T07:42:18;3.08;;;0.50;;
77332;SDS011;66408;51.326;12.070;2023-03-14T07:47:50;2.20;;;0.52;;
77332;SDS011;66408;51.326;12.070;2023-03-14T07:50:16;4.13;;;0.70;;
77332;SDS011;66408;51.326;12.070;2023-03-14T07:52:43;1.55;;;0.35;;
77332;SDS011;66408;51.326;12.070;2023-03-14T07:55:09;3.30;;;0.70;;
77332;SDS011;66408;51.326;12.070;2023-03-14T07:57:36;2.03;;;0.47;;
77332;SDS011;66408;51.326;12.070;2023-03-14T08:00:03;1.13;;;0.43;;
77332;SDS011;66408;51.326;12.070;2023-03-14T08:02:31;1.52;;;0.50;;
77332;SDS011;66408;51.326;12.070;2023-03-14T08:04:57;3.53;;;0.30;;
77332;SDS011;66408;51.326;12.070;2023-03-14T08:07:24;1.05;;;0.43;;
77332;SDS011;66408;51.326;12.070;2023-03-14T08:09:50;1.83;;;0.40;;
77332;SDS011;66408;51.326;12.070;2023-03-14T08:12:17;1.83;;;0.38;;
77332;SDS011;66408;51.326;12.070;2023-03-14T08:14:43;1.95;;;0.50;;
77332;SDS011;66408;51.326;12.070;2023-03-14T08:17:16;1.13;;;0.30;;
77332;SDS011;66408;51.326;12.070;2023-03-14T08:19:43;0.73;;;0.20;;
77332;SDS011;66408;51.326;12.070;2023-03-14T08:22:10;1.65;;;0.40;;
77332;SDS011;66408;51.326;12.070;2023-03-14T08:24:36;0.93;;;0.20;;
77332;SDS011;66408;51.326;12.070;2023-03-14T08:27:03;1.30;;;0.20;;
77332;SDS011;66408;51.326;12.070;2023-03-14T08:29:29;1.02;;;0.28;;
77332;SDS011;66408;51.326;12.070;2023-03-14T08:31:56;2.00;;;0.50;;
77332;SDS011;66408;51.326;12.070;2023-03-14T08:34:22;3.63;;;0.70;;
77332;SDS011;66408;51.326;12.070;2023-03-14T08:36:49;1.40;;;0.30;;
77332;SDS011;66408;51.326;12.070;2023-03-14T08:39:16;1.23;;;0.50;;
77332;SDS011;66408;51.326;12.070;2023-03-14T08:41:42;2.28;;;0.32;;
77332;SDS011;66408;51.326;12.070;2023-03-14T08:44:10;1.48;;;0.70;;
77332;SDS011;66408;51.326;12.070;2023-03-14T08:46:37;1.00;;;0.40;;
77332;SDS011;66408;51.326;12.070;2023-03-14T08:49:04;2.97;;;0.40;;
77332;SDS011;66408;51.326;12.070;2023-03-14T08:51:30;1.55;;;0.45;;
77332;SDS011;66408;51.326;12.070;2023-03-14T08:53:57;2.03;;;0.40;;
77332;SDS011;66408;51.326;12.070;2023-03-14T08:56:24;1.70;;;0.30;;
77332;SDS011;66408;51.326;12.070;2023-03-14T08:58:51;1.48;;;0.43;;
77332;SDS011;66408;51.326;12.070;2023-03-14T09:01:17;1.80;;;0.55;;
77332;SDS011;66408;51.326;12.070;2023-03-14T09:03:45;2.08;;;0.40;;
77332;SDS011;66408;51.326;12.070;2023-03-14T09:06:14;2.53;;;0.60;;
77332;SDS011;66408;51.326;12.070;2023-03-14T09:08:44;3.33;;;0.40;;
77332;SDS011;66408;51.326;12.070;2023-03-14T09:11:11;2.25;;;0.50;;
77332;SDS011;66408;51.326;12.070;2023-03-14T09:13:38;1.13;;;0.32;;
77332;SDS011;66408;51.326;12.070;2023-03-14T09:16:05;1.95;;;0.35;;
77332;SDS011;66408;51.326;12.070;2023-03-14T09:18:33;1.42;;;0.20;;
77332;SDS011;66408;51.326;12.070;2023-03-14T09:20:59;1.05;;;0.45;;
77332;SDS011;66408;51.326;12.070;2023-03-14T09:23:26;1.13;;;0.30;;
77332;SDS011;66408;51.326;12.070;2023-03-14T09:25:56;0.63;;;0.20;;
77332;SDS011;66408;51.326;12.070;2023-03-14T09:28:25;1.08;;;0.30;;
77332;SDS011;66408;51.326;12.070;2023-03-14T09:30:52;3.55;;;0.50;;
77332;SDS011;66408;51.326;12.070;2023-03-14T09:33:18;1.75;;;0.30;;
77332;SDS011;66408;51.326;12.070;2023-03-14T09:35:45;0.70;;;0.30;;
77332;SDS011;66408;51.326;12.070;2023-03-14T09:38:12;1.83;;;0.30;;
77332;SDS011;66408;51.326;12.070;2023-03-14T09:40:40;0.77;;;0.30;;
77332;SDS011;66408;51.326;12.070;2023-03-14T09:43:13;1.55;;;0.30;;
77332;SDS011;66408;51.326;12.070;2023-03-14T09:45:41;1.98;;;0.40;;
77332;SDS011;66408;51.326;12.070;2023-03-14T09:48:16;0.85;;;0.30;;
77332;SDS011;66408;51.326;12.070;2023-03-14T09:50:50;0.47;;;0.20;;
77332;SDS011;66408;51.326;12.070;2023-03-14T09:53:30;0.63;;;0.30;;
77332;SDS011;66408;51.326;12.070;2023-03-14T09:56:08;0.88;;;0.30;;
77332;SDS011;66408;51.326;12.070;2023-03-14T09:58:47;1.15;;;0.40;;
77332;SDS011;66408;51.326;12.070;2023-03-14T10:01:18;0.95;;;0.28;;
77332;SDS011;66408;51.326;12.070;2023-03-14T10:03:49;0.50;;;0.20;;
77332;SDS011;66408;51.326;12.070;2023-03-14T10:06:19;2.30;;;0.30;;
77332;SDS011;66408;51.326;12.070;2023-03-14T10:08:47;1.00;;;0.32;;
77332;SDS011;66408;51.326;12.070;2023-03-14T10:11:15;0.60;;;0.20;;
77332;SDS011;66408;51.326;12.070;2023-03-14T10:16:28;0.35;;;0.17;;
77332;SDS011;66408;51.326;12.070;2023-03-14T10:19:01;2.10;;;0.30;;
77332;SDS011;66408;51.326;12.070;2023-03-14T10:21:42;1.27;;;0.20;;
77332;SDS011;66408;51.326;12.070;2023-03-14T10:24:26;1.67;;;0.30;;
77332;SDS011;66408;51.326;12.070;2023-03-14T10:26:57;0.82;;;0.32;;
77332;SDS011;66408;51.326;12.070;2023-03-14T10:34:32;2.05;;;0.43;;
77332;SDS011;66408;51.326;12.070;2023-03-14T10:39:48;1.58;;;0.17;;
77332;SDS011;66408;51.326;12.070;2023-03-14T10:42:21;2.35;;;0.30;;
77332;SDS011;66408;51.326;12.070;2023-03-14T10:44:51;3.15;;;0.40;;
77332;SDS011;66408;51.326;12.070;2023-03-14T10:47:23;1.60;;;0.40;;
77332;SDS011;66408;51.326;12.070;2023-03-14T10:49:51;0.65;;;0.30;;
77332;SDS011;66408;51.326;12.070;2023-03-14T10:52:25;2.10;;;0.40;;
77332;SDS011;66408;51.326;12.070;2023-03-14T10:55:16;0.57;;;0.30;;
77332;SDS011;66408;51.326;12.070;2023-03-14T10:57:43;0.77;;;0.30;;
77332;SDS011;66408;51.326;12.070;2023-03-14T11:00:20;1.50;;;0.20;;
77332;SDS011;66408;51.326;12.070;2023-03-14T11:05:25;1.02;;;0.25;;
77332;SDS011;66408;51.326;12.070;2023-03-14T11:08:02;0.22;;;0.08;;
77332;SDS011;66408;51.326;12.070;2023-03-14T11:10:37;0.40;;;0.30;;
77332;SDS011;66408;51.326;12.070;2023-03-14T11:21:29;1.52;;;0.35;;
77332;SDS011;66408;51.326;12.070;2023-03-14T11:27:04;2.53;;;0.30;;
77332;SDS011;66408;51.326;12.070;2023-03-14T11:29:47;0.57;;;0.25;;
77332;SDS011;66408;51.326;12.070;2023-03-14T11:32:24;0.10;;;0.10;;
77332;SDS011;66408;51.326;12.070;2023-03-14T11:35:03;0.45;;;0.25;;
77332;SDS011;66408;51.326;12.070;2023-03-14T11:37:51;1.08;;;0.10;;
77332;SDS011;66408;51.326;12.070;2023-03-14T11:40:22;0.65;;;0.38;;
77332;SDS011;66408;51.326;12.070;2023-03-14T11:42:59;1.73;;;0.30;;
77332;SDS011;66408;51.326;12.070;2023-03-14T11:45:41;0.40;;;0.30;;
77332;SDS011;66408;51.326;12.070;2023-03-14T11:48:24;0.35;;;0.20;;
77332;SDS011;66408;51.326;12.070;2023-03-14T11:50:54;0.32;;;0.13;;
77332;SDS011;66408;51.326;12.070;2023-03-14T11:53:40;1.33;;;0.28;;
77332;SDS011;66408;51.326;12.070;2023-03-14T11:56:12;1.02;;;0.22;;
77332;SDS011;66408;51.326;12.070;2023-03-14T11:58:48;0.57;;;0.20;;
77332;SDS011;66408;51.326;12.070;2023-03-14T12:01:20;1.05;;;0.20;;
77332;SDS011;66408;51.326;12.070;2023-03-14T12:03:58;0.10;;;0.10;;
77332;SDS011;66408;51.326;12.070;2023-03-14T12:06:40;0.93;;;0.20;;
77332;SDS011;66408;51.326;12.070;2023-03-14T12:09:18;1.48;;;0.43;;
77332;SDS011;66408;51.326;12.070;2023-03-14T12:14:28;1.00;;;0.30;;
77332;SDS011;66408;51.326;12.070;2023-03-14T12:16:59;0.30;;;0.20;;
77332;SDS011;66408;51.326;12.070;2023-03-14T12:19:33;0.73;;;0.40;;
77332;SDS011;66408;51.326;12.070;2023-03-14T12:22:28;1.35;;;0.40;;
77332;SDS011;66408;51.326;12.070;2023-03-14T12:24:59;0.45;;;0.17;;
77332;SDS011;66408;51.326;12.070;2023-03-14T12:30:26;0.63;;;0.30;;
77332;SDS011;66408;51.326;12.070;2023-03-14T12:36:11;0.40;;;0.20;;
77332;SDS011;66408;51.326;12.070;2023-03-14T12:43:55;0.82;;;0.10;;
77332;SDS011;66408;51.326;12.070;2023-03-14T12:46:24;0.40;;;0.13;;
77332;SDS011;66408;51.326;12.070;2023-03-14T12:51:36;3.33;;;0.35;;
77332;SDS011;66408;51.326;12.070;2023-03-14T12:59:27;2.33;;;0.20;;
77332;SDS011;66408;51.326;12.070;2023-03-14T13:02:41;0.10;;;0.10;;
77332;SDS011;66408;51.326;12.070;2023-03-14T13:05:03;0.10;;;0.10;;
77332;SDS011;66408;51.326;12.070;2023-03-14T13:13:17;0.30;;;0.20;;
77332;SDS011;66408;51.326;12.070;2023-03-14T13:15:48;0.20;;;0.13;;
77332;SDS011;66408;51.326;12.070;2023-03-14T13:18:27;1.27;;;0.15;;
77332;SDS011;66408;51.326;12.070;2023-03-14T13:21:28;0.35;;;0.10;;
77332;SDS011;66408;51.326;12.070;2023-03-14T13:23:56;0.80;;;0.20;;
77332;SDS011;66408;51.326;12.070;2023-03-14T13:26:44;0.38;;;0.25;;
77332;SDS011;66408;51.326;12.070;2023-03-14T13:29:21;0.40;;;0.20;;
77332;SDS011;66408;51.326;12.070;2023-03-14T13:31:51;0.55;;;0.30;;
77332;SDS011;66408;51.326;12.070;2023-03-14T13:34:20;1.38;;;0.20;;
77332;SDS011;66408;51.326;12.070;2023-03-14T13:36:47;0.17;;;0.10;;
77332;SDS011;66408;51.326;12.070;2023-03-14T13:39:18;0.10;;;0.10;;
77332;SDS011;66408;51.326;12.070;2023-03-14T13:41:51;0.65;;;0.30;;
77332;SDS011;66408;51.326;12.070;2023-03-14T13:44:24;0.28;;;0.20;;
77332;SDS011;66408;51.326;12.070;2023-03-14T13:46:51;0.10;;;0.10;;
77332;SDS011;66408;51.326;12.070;2023-03-14T13:49:21;0.10;;;0.10;;
77332;SDS011;66408;51.326;12.070;2023-03-14T13:51:50;0.10;;;0.10;;
77332;SDS011;66408;51.326;12.070;2023-03-14T13:54:18;0.75;;;0.25;;
77332;SDS011;66408;51.326;12.070;2023-03-14T13:56:46;0.17;;;0.17;;
77332;SDS011;66408;51.326;12.070;2023-03-14T13:59:30;0.20;;;0.17;;
77332;SDS011;66408;51.326;12.070;2023-03-14T14:01:59;0.10;;;0.10;;
77332;SDS011;66408;51.326;12.070;2023-03-14T14:04:31;0.50;;;0.20;;
77332;SDS011;66408;51.326;12.070;2023-03-14T14:07:05;0.47;;;0.10;;
77332;SDS011;66408;51.326;12.070;2023-03-14T14:09:36;0.22;;;0.10;;
77332;SDS011;66408;51.326;12.070;2023-03-14T14:17:17;0.55;;;0.25;;
77332;SDS011;66408;51.326;12.070;2023-03-14T14:19:47;0.28;;;0.10;;
77332;SDS011;66408;51.326;12.070;2023-03-14T14:22:14;1.52;;;0.50;;
77332;SDS011;66408;51.326;12.070;2023-03-14T14:24:41;0.68;;;0.30;;
77332;SDS011;66408;51.326;12.070;2023-03-14T14:27:10;1.00;;;0.40;;
77332;SDS011;66408;51.326;12.070;2023-03-14T14:29:41;0.98;;;0.40;;
77332;SDS011;66408;51.326;12.070;2023-03-14T14:34:41;0.47;;;0.20;;
77332;SDS011;66408;51.326;12.070;2023-03-14T14:39:47;1.42;;;0.57;;
77332;SDS011;66408;51.326;12.070;2023-03-14T14:42:17;0.90;;;0.40;;
77332;SDS011;66408;51.326;12.070;2023-03-14T14:44:49;1.80;;;0.40;;
77332;SDS011;66408;51.326;12.070;2023-03-14T14:47:19;0.25;;;0.20;;
77332;SDS011;66408;51.326;12.070;2023-03-14T14:49:48;0.20;;;0.20;;
77332;SDS011;66408;51.326;12.070;2023-03-14T14:52:18;0.82;;;0.20;;
77332;SDS011;66408;51.326;12.070;2023-03-14T14:55:00;0.77;;;0.28;;
77332;SDS011;66408;51.326;12.070;2023-03-14T14:57:30;1.45;;;0.22;;
77332;SDS011;66408;51.326;12.070;2023-03-14T15:00:05;0.32;;;0.20;;
77332;SDS011;66408;51.326;12.070;2023-03-14T15:02:39;0.90;;;0.10;;
77332;SDS011;66408;51.326;12.070;2023-03-14T15:05:15;4.35;;;0.38;;
77332;SDS011;66408;51.326;12.070;2023-03-14T15:07:44;6.88;;;0.40;;
77332;SDS011;66408;51.326;12.070;2023-03-14T15:10:12;3.45;;;0.35;;
77332;SDS011;66408;51.326;12.070;2023-03-14T15:12:40;1.40;;;0.40;;
77332;SDS011;66408;51.326;12.070;2023-03-14T15:15:07;3.38;;;0.90;;
77332;SDS011;66408;51.326;12.070;2023-03-14T15:17:35;1.55;;;0.57;;
77332;SDS011;66408;51.326;12.070;2023-03-14T15:20:03;1.65;;;0.50;;
77332;SDS011;66408;51.326;12.070;2023-03-14T15:22:31;2.97;;;0.55;;
77332;SDS011;66408;51.326;12.070;2023-03-14T15:24:58;1.33;;;0.98;;
77332;SDS011;66408;51.326;12.070;2023-03-14T15:27:25;2.95;;;0.70;;
77332;SDS011;66408;51.326;12.070;2023-03-14T15:29:54;1.02;;;0.40;;
77332;SDS011;66408;51.326;12.070;2023-03-14T15:32:21;1.73;;;0.43;;
77332;SDS011;66408;51.326;12.070;2023-03-14T15:34:48;1.55;;;0.40;;
77332;SDS011;66408;51.326;12.070;2023-03-14T15:37:15;0.47;;;0.22;;
77332;SDS011;66408;51.326;12.070;2023-03-14T15:42:10;0.50;;;0.30;;
77332;SDS011;66408;51.326;12.070;2023-03-14T15:44:37;1.67;;;0.70;;
77332;SDS011;66408;51.326;12.070;2023-03-14T15:47:05;0.80;;;0.50;;
77332;SDS011;66408;51.326;12.070;2023-03-14T15:49:33;0.75;;;0.50;;
77332;SDS011;66408;51.326;12.070;2023-03-14T15:52:02;0.90;;;0.57;;
77332;SDS011;66408;51.326;12.070;2023-03-14T15:54:32;1.02;;;0.60;;
77332;SDS011;66408;51.326;12.070;2023-03-14T15:56:58;0.70;;;0.50;;
77332;SDS011;66408;51.326;12.070;2023-03-14T15:59:25;1.17;;;0.60;;
77332;SDS011;66408;51.326;12.070;2023-03-14T16:01:52;0.73;;;0.55;;
77332;SDS011;66408;51.326;12.070;2023-03-14T16:04:19;1.75;;;1.27;;
77332;SDS011;66408;51.326;12.070;2023-03-14T16:06:45;1.70;;;0.68;;
77332;SDS011;66408;51.326;12.070;2023-03-14T16:09:12;2.10;;;1.23;;